Nearby METAR Reports

 

LIPQ - Ronchi Legionari, Italy
Distance from station: SSW 4km
Updated: 25/06/2019 13:20
Clear
Clear
 Wind from varies
Wind: varies 7 km/h
Temperature: 33°C
Dew Point: 17°C
Humidity: 38%
Barometer: 1020 hPa
Summary: Clear
Visibility: greater than 10 km
2019/06/25 13:20 LIPQ 251320Z VRB04KT CAVOK 33/17 Q1020
LIVT - Trieste, Italy
Distance from station: SE 27km
Updated: 25/06/2019 12:55
Few Clouds
Few Clouds
 Wind from NNE
Wind: NNE 9 km/h
Temperature: 34°C
Heat Index: 36°C
Dew Point: 19°C
Humidity: 41%
Barometer: 1020 hPa
Clouds: Few Clouds
Visibility: 10 km
Cloud details: Few Clouds 914 m
2019/06/25 12:55 LIVT 251255Z 02005KT 9999 FEW030 34/19 Q1020 RMK FEW QUK 2 QUL 1 NE VIS MAR 20 KM VIS MIN 9999
 
LIPI - Rivolto (it-Afb), Italy
Distance from station: WNW 37km
Updated: 25/06/2019 12:55
Few Clouds
Few Clouds
 Wind from varies
Wind: varies 0 km/h
Temperature: 34°C
Dew Point: 17°C
Humidity: 36%
Barometer: 1021 hPa
Clouds: Few Clouds
Visibility: 10 km
Cloud details: Few Clouds 914 m
2019/06/25 12:55 LIPI 251255Z /////KT 9999 FEW030 34/17 Q1021
LJPZ - Portoroz, Slovenia
Distance from station: SSE 43km
Updated: 25/06/2019 13:00
Few Clouds
Few Clouds
 Wind from N
Wind: N 15 km/h
Temperature: 34°C
Heat Index: 36°C
Dew Point: 19°C
Humidity: 41%
Barometer: 1020 hPa
Clouds: Few Clouds
Visibility: 10 km
Cloud details: Few Clouds 1524 m
2019/06/25 13:00 LJPZ 251300Z 36008KT 330V030 9999 FEW050 34/19 Q1020
 
LIPA - Aviano (it/Us-Af, Italy
Distance from station: WNW 73km
Updated: 25/06/2019 12:55
Few Clouds
Few Clouds
 Wind from WNW
Wind: WNW 6 km/h
Temperature: 32°C
Heat Index: 36°C
Dew Point: 22°C
Humidity: 55%
Barometer: 1021 hPa
Clouds: Few Clouds
Visibility: 10 km
Cloud details: Few Clouds 1219 m
2019/06/25 12:55 LIPA 251255Z 29003KT 9999 FEW040 32/22 Q1021 RMK FEW VIS MIN 9999 WIND THR05 /////KT WIND THR23 /////KT A3017 BLU
LIVO - Tarvisio, Italy
Distance from station: N 73km
Updated: 25/06/2019 12:55
Few Clouds
Few Clouds
 Wind from NE
Wind: NE 7 km/h
Temperature: 28°C
Heat Index: 29°C
Dew Point: 18°C
Humidity: 55%
Barometer: 1024 hPa
Clouds: Few Clouds
Visibility: 10 km
Cloud details: Few Clouds 914 m
2019/06/25 12:55 LIVO 251255Z 04004KT 9999 FEW030 28/18 Q1024
 
LJLJ - Ljubljana/Brnik, Slovenia
Distance from station: ENE 86km
Updated: 25/06/2019 13:00
Few Clouds
Few Clouds
 Wind from ESE
Wind: ESE 11 km/h
Temperature: 29°C
Heat Index: 29°C
Dew Point: 18°C
Humidity: 51%
Barometer: 1024 hPa
Clouds: Few Clouds
Visibility: 10 km
Cloud details: Few Clouds 1372 m
2019/06/25 13:00 LJLJ 251300Z 11006KT 070V160 9999 FEW045 29/18 Q1024 NOSIG
LIPZ - Venezia/Tessera, Italy
Distance from station: WSW 96km
Updated: 25/06/2019 13:20
Few Clouds
Few Clouds
 Wind from SSE
Wind: SSE 9 km/h
Temperature: 31°C
Heat Index: 33°C
Dew Point: 19°C
Humidity: 49%
Barometer: 1021 hPa
Clouds: Few Clouds
Visibility: 10 km
Cloud details: Few Clouds 1372 m
2019/06/25 13:20 LIPZ 251320Z 15005KT 120V180 9999 FEW045 31/19 Q1021 NOSIG
 
LIPH - Treviso(Civ/It-A, Italy
Distance from station: WSW 105km
Updated: 25/06/2019 13:20
Clear
Clear
 Wind from varies
Wind: varies 2 km/h
Temperature: 33°C
Heat Index: 34°C
Dew Point: 19°C
Humidity: 44%
Barometer: 1021 hPa
Summary: Clear
Visibility: greater than 10 km
2019/06/25 13:20 LIPH 251320Z VRB01KT CAVOK 33/19 Q1021
LDRI - Rijeka/Omisalj, Croatia
Distance from station: SE 109km
Updated: 25/06/2019 13:00
Clear
Clear
 Wind from W
Wind: W 13 km/h
Temperature: 31°C
Heat Index: 32°C
Dew Point: 18°C
Humidity: 46%
Barometer: 1021 hPa
Summary: Clear
Visibility: greater than 10 km
2019/06/25 13:00 LDRI 251300Z 26007KT 200V310 CAVOK 31/18 Q1021
 
LOWK - Klagenfurt(Civ/M, Austria
Distance from station: NE 110km
Updated: 25/06/2019 13:20
Few Clouds
Few Clouds
 Wind from ESE
Wind: ESE 9 km/h
Temperature: 30°C
Heat Index: 31°C
Dew Point: 17°C
Humidity: 46%
Barometer: 1024 hPa
Clouds: Few Clouds
Visibility: 10 km
Cloud details: Few Clouds 1829 m
2019/06/25 13:20 LOWK 251320Z 11005KT 020V160 9999 FEW060 30/17 Q1024 NOSIG
LIPS - Istrana (it-Afb), Italy
Distance from station: W 111km
Updated: 25/06/2019 12:55
Few Clouds
Few Clouds
 Wind from SE
Wind: SE 7 km/h
Temperature: 33°C
Heat Index: 38°C
Dew Point: 23°C
Humidity: 56%
Barometer: 1021 hPa
Clouds: Few Clouds
Visibility: 10 km
Cloud details: Few Clouds 914 m
2019/06/25 12:55 LIPS 251255Z 14004KT 9999 FEW030 33/23 Q1021
 
LDPL - Pula, Croatia
Distance from station: SSE 112km
Updated: 25/06/2019 13:00
Clear
Clear
 Wind from SE
Wind: SE 9 km/h
Temperature: 31°C
Heat Index: 32°C
Dew Point: 18°C
Humidity: 46%
Barometer: 1021 hPa
Summary: Clear
Visibility: greater than 10 km
2019/06/25 13:00 LDPL 251300Z 14005KT 040V200 CAVOK 31/18 Q1021 TEMPO 27008KT
LIVD - Dobbiaco, Italy
Distance from station: NW 138km
Updated: 25/06/2019 12:55
Few Clouds
Few Clouds
 Wind from varies
Wind: varies 0 km/h
Temperature: 28°C
Dew Point: 8°C
Humidity: 28%
Barometer: 1027 hPa
Clouds: Few Clouds
Visibility: 10 km
Cloud details: Few Clouds 914 m
2019/06/25 12:55 LIVD 251255Z /////KT 9999 FEW030 28/08 Q1027
 
LIPU - Padova (civ/It-A, Italy
Distance from station: WSW 139km
Updated: 25/06/2019 06:00
NOT Current
Partly cloudy
Partly cloudy
 Wind from varies
Wind: varies 6 km/h
Temperature: 26°C
Dew Point: 20°C
Humidity: 70%
Barometer: 1022 hPa
Clouds: Partly cloudy
Visibility: 8 km
2019/06/25 06:00 LIPU 250600Z VRB03KT 8000 NSC 26/20 Q1022
LIVR - Rolle Pass, Italy
Distance from station: WNW 142km
Updated: 25/06/2019 12:55
Partly cloudy
Partly cloudy
 Wind from SE
Wind: SE 24 km/h
Temperature: 19°C
Dew Point: 12°C
Humidity: 64%
Barometer: 1033 hPa
Clouds: Partly cloudy
Visibility: 10 km
Cloud details: Partly cloudy 914 m
2019/06/25 12:55 LIVR 251255Z 13013KT 9999 SCT030 19/12 Q1033 RMK SCT MON CLD CIME VIS MIN 9999
 
LJCE - Cerklje, Slovenia
Distance from station: E 157km
Updated: 25/06/2019 13:00
Few Clouds
Few Clouds
 Wind from ESE
Wind: ESE 7 km/h
Temperature: 29°C
Heat Index: 31°C
Dew Point: 20°C
Humidity: 58%
Barometer: 1023 hPa
Clouds: Few Clouds
Visibility: 10 km
Cloud details: Few Clouds 1219 m
2019/06/25 13:00 LJCE 251300Z 11004KT 9999 FEW040 29/20 Q1023
LDLO - Losinj Island, Croatia
Distance from station: SSE 159km
Updated: 23/06/2019 18:00
NOT Current
Clear
Clear
 Wind from NW
Wind: NW 15 km/h
Temperature: 24°C
Dew Point: 20°C
Humidity: 78%
Barometer: 1014 hPa
Summary: Clear
Visibility: greater than 10 km
2019/06/23 18:00 LDLO 231800Z 31008KT CAVOK 24/20 Q1014
 
LOXZ - Zeltweg (mil), Austria
Distance from station: NNE 179km
Updated: 25/06/2019 13:20
Few Clouds
Few Clouds
 Wind from ESE
Wind: ESE 15 km/h
Temperature: 29°C
Heat Index: 29°C
Dew Point: 16°C
Humidity: 45%
Barometer: 1025 hPa
Clouds: Few Clouds
Cloud details: Few Clouds 1829 m
2019/06/25 13:20 LOXZ 251320Z 11008KT 40KM FEW060CU 29/16 Q1025 NOSIG
LIPB - Bolzano(Civ/It-A, Italy
Distance from station: WNW 181km
Updated: 25/06/2019 12:50
Clear
Clear
 Wind from SSE
Wind: SSE 11 km/h
Temperature: 33°C
Heat Index: 34°C
Dew Point: 18°C
Humidity: 41%
Barometer: 1020 hPa
Summary: Clear
Visibility: greater than 10 km
2019/06/25 12:50 LIPB 251250Z 15006KT 120V210 CAVOK 33/18 Q1020